sensor_id;sensor_type;location;lat;lon;timestamp;P1;durP1;ratioP1;P2;durP2;ratioP2
53263;SDS011;39153;52.680;6.172;2023-06-04T00:00:43;5.30;;;1.63;;
53263;SDS011;39153;52.680;6.172;2023-06-04T00:03:09;5.70;;;1.90;;
53263;SDS011;39153;52.680;6.172;2023-06-04T00:05:34;4.25;;;1.63;;
53263;SDS011;39153;52.680;6.172;2023-06-04T00:08:00;4.97;;;1.55;;
53263;SDS011;39153;52.680;6.172;2023-06-04T00:10:26;3.83;;;1.50;;
53263;SDS011;39153;52.680;6.172;2023-06-04T00:12:51;4.22;;;1.75;;
53263;SDS011;39153;52.680;6.172;2023-06-04T00:15:17;4.35;;;1.80;;
53263;SDS011;39153;52.680;6.172;2023-06-04T00:17:43;3.78;;;1.80;;
53263;SDS011;39153;52.680;6.172;2023-06-04T00:20:09;5.40;;;1.67;;
53263;SDS011;39153;52.680;6.172;2023-06-04T00:22:35;4.90;;;1.70;;
53263;SDS011;39153;52.680;6.172;2023-06-04T00:25:01;5.03;;;1.60;;
53263;SDS011;39153;52.680;6.172;2023-06-04T00:27:28;5.25;;;1.73;;
53263;SDS011;39153;52.680;6.172;2023-06-04T00:29:53;6.35;;;2.10;;
53263;SDS011;39153;52.680;6.172;2023-06-04T00:32:19;5.03;;;1.58;;
53263;SDS011;39153;52.680;6.172;2023-06-04T00:34:52;5.07;;;1.88;;
53263;SDS011;39153;52.680;6.172;2023-06-04T00:37:23;4.50;;;1.92;;
53263;SDS011;39153;52.680;6.172;2023-06-04T00:39:49;5.93;;;2.13;;
53263;SDS011;39153;52.680;6.172;2023-06-04T00:42:15;4.90;;;1.95;;
53263;SDS011;39153;52.680;6.172;2023-06-04T00:44:42;4.57;;;1.83;;
53263;SDS011;39153;52.680;6.172;2023-06-04T00:47:15;3.78;;;1.77;;
53263;SDS011;39153;52.680;6.172;2023-06-04T00:49:43;5.93;;;2.10;;
53263;SDS011;39153;52.680;6.172;2023-06-04T00:52:09;4.85;;;2.15;;
53263;SDS011;39153;52.680;6.172;2023-06-04T00:54:35;6.65;;;2.20;;
53263;SDS011;39153;52.680;6.172;2023-06-04T00:57:02;7.78;;;2.60;;
53263;SDS011;39153;52.680;6.172;2023-06-04T00:59:29;5.45;;;2.22;;
53263;SDS011;39153;52.680;6.172;2023-06-04T01:02:01;6.35;;;2.50;;
53263;SDS011;39153;52.680;6.172;2023-06-04T01:07:22;5.10;;;2.25;;
53263;SDS011;39153;52.680;6.172;2023-06-04T01:09:49;5.97;;;2.75;;
53263;SDS011;39153;52.680;6.172;2023-06-04T01:12:15;5.75;;;2.60;;
53263;SDS011;39153;52.680;6.172;2023-06-04T01:14:41;5.00;;;2.40;;
53263;SDS011;39153;52.680;6.172;2023-06-04T01:23:00;7.65;;;2.70;;
53263;SDS011;39153;52.680;6.172;2023-06-04T01:28:05;6.78;;;3.08;;
53263;SDS011;39153;52.680;6.172;2023-06-04T01:30:38;4.65;;;2.33;;
53263;SDS011;39153;52.680;6.172;2023-06-04T01:33:10;7.00;;;2.70;;
53263;SDS011;39153;52.680;6.172;2023-06-04T01:35:37;8.05;;;2.83;;
53263;SDS011;39153;52.680;6.172;2023-06-04T01:38:03;6.60;;;2.88;;
53263;SDS011;39153;52.680;6.172;2023-06-04T01:40:29;7.53;;;2.17;;
53263;SDS011;39153;52.680;6.172;2023-06-04T01:42:55;6.88;;;3.00;;
53263;SDS011;39153;52.680;6.172;2023-06-04T01:45:22;7.60;;;2.88;;
53263;SDS011;39153;52.680;6.172;2023-06-04T01:47:48;6.72;;;2.55;;
53263;SDS011;39153;52.680;6.172;2023-06-04T01:50:15;6.15;;;3.00;;
53263;SDS011;39153;52.680;6.172;2023-06-04T01:52:42;7.93;;;3.10;;
53263;SDS011;39153;52.680;6.172;2023-06-04T01:55:08;7.75;;;3.30;;
53263;SDS011;39153;52.680;6.172;2023-06-04T01:57:37;8.07;;;3.70;;
53263;SDS011;39153;52.680;6.172;2023-06-04T02:00:07;8.23;;;3.20;;
53263;SDS011;39153;52.680;6.172;2023-06-04T02:02:35;6.90;;;2.58;;
53263;SDS011;39153;52.680;6.172;2023-06-04T02:05:04;5.90;;;2.97;;
53263;SDS011;39153;52.680;6.172;2023-06-04T02:07:43;7.68;;;3.53;;
53263;SDS011;39153;52.680;6.172;2023-06-04T02:10:17;7.32;;;2.75;;
53263;SDS011;39153;52.680;6.172;2023-06-04T02:15:20;8.73;;;3.33;;
53263;SDS011;39153;52.680;6.172;2023-06-04T02:17:48;7.75;;;3.42;;
53263;SDS011;39153;52.680;6.172;2023-06-04T02:20:15;7.80;;;3.90;;
53263;SDS011;39153;52.680;6.172;2023-06-04T02:22:41;7.53;;;2.88;;
53263;SDS011;39153;52.680;6.172;2023-06-04T02:25:08;7.80;;;3.67;;
53263;SDS011;39153;52.680;6.172;2023-06-04T02:27:36;7.72;;;3.67;;
53263;SDS011;39153;52.680;6.172;2023-06-04T02:30:03;11.13;;;3.50;;
53263;SDS011;39153;52.680;6.172;2023-06-04T02:32:30;8.93;;;3.17;;
53263;SDS011;39153;52.680;6.172;2023-06-04T02:34:56;9.88;;;3.17;;
53263;SDS011;39153;52.680;6.172;2023-06-04T02:37:21;9.02;;;3.50;;
53263;SDS011;39153;52.680;6.172;2023-06-04T02:39:47;9.45;;;4.47;;
53263;SDS011;39153;52.680;6.172;2023-06-04T02:42:13;11.15;;;4.15;;
53263;SDS011;39153;52.680;6.172;2023-06-04T02:44:39;10.27;;;4.55;;
53263;SDS011;39153;52.680;6.172;2023-06-04T02:47:04;10.98;;;4.32;;
53263;SDS011;39153;52.680;6.172;2023-06-04T02:49:30;11.05;;;4.68;;
53263;SDS011;39153;52.680;6.172;2023-06-04T02:51:56;11.98;;;3.70;;
53263;SDS011;39153;52.680;6.172;2023-06-04T02:54:22;11.45;;;4.93;;
53263;SDS011;39153;52.680;6.172;2023-06-04T02:56:48;9.05;;;4.70;;
53263;SDS011;39153;52.680;6.172;2023-06-04T02:59:14;13.50;;;4.90;;
53263;SDS011;39153;52.680;6.172;2023-06-04T03:01:40;10.60;;;5.25;;
53263;SDS011;39153;52.680;6.172;2023-06-04T03:04:06;13.32;;;4.00;;
53263;SDS011;39153;52.680;6.172;2023-06-04T03:06:35;11.95;;;3.95;;
53263;SDS011;39153;52.680;6.172;2023-06-04T03:09:04;10.65;;;4.15;;
53263;SDS011;39153;52.680;6.172;2023-06-04T03:11:30;10.90;;;4.63;;
53263;SDS011;39153;52.680;6.172;2023-06-04T03:13:56;11.77;;;4.25;;
53263;SDS011;39153;52.680;6.172;2023-06-04T03:16:21;13.55;;;4.68;;
53263;SDS011;39153;52.680;6.172;2023-06-04T03:18:47;15.15;;;4.22;;
53263;SDS011;39153;52.680;6.172;2023-06-04T03:21:13;12.25;;;5.20;;
53263;SDS011;39153;52.680;6.172;2023-06-04T03:23:39;11.07;;;5.55;;
53263;SDS011;39153;52.680;6.172;2023-06-04T03:26:05;12.82;;;6.05;;
53263;SDS011;39153;52.680;6.172;2023-06-04T03:28:31;14.27;;;5.85;;
53263;SDS011;39153;52.680;6.172;2023-06-04T03:30:58;10.15;;;4.13;;
53263;SDS011;39153;52.680;6.172;2023-06-04T03:33:23;15.48;;;5.80;;
53263;SDS011;39153;52.680;6.172;2023-06-04T03:35:52;12.65;;;6.03;;
53263;SDS011;39153;52.680;6.172;2023-06-04T03:38:18;13.02;;;5.97;;
53263;SDS011;39153;52.680;6.172;2023-06-04T03:40:45;16.88;;;7.32;;
53263;SDS011;39153;52.680;6.172;2023-06-04T03:43:10;10.55;;;5.43;;
53263;SDS011;39153;52.680;6.172;2023-06-04T03:45:36;14.50;;;5.40;;
53263;SDS011;39153;52.680;6.172;2023-06-04T03:48:02;13.77;;;6.00;;
53263;SDS011;39153;52.680;6.172;2023-06-04T03:50:28;11.73;;;5.75;;
53263;SDS011;39153;52.680;6.172;2023-06-04T03:52:53;9.93;;;5.55;;
53263;SDS011;39153;52.680;6.172;2023-06-04T03:55:19;13.15;;;5.88;;
53263;SDS011;39153;52.680;6.172;2023-06-04T03:57:45;10.95;;;4.32;;
53263;SDS011;39153;52.680;6.172;2023-06-04T04:00:11;10.25;;;4.55;;
53263;SDS011;39153;52.680;6.172;2023-06-04T04:02:37;17.25;;;5.03;;
53263;SDS011;39153;52.680;6.172;2023-06-04T04:05:04;10.02;;;5.30;;
53263;SDS011;39153;52.680;6.172;2023-06-04T04:07:30;13.00;;;5.85;;
53263;SDS011;39153;52.680;6.172;2023-06-04T04:09:56;11.18;;;5.38;;
53263;SDS011;39153;52.680;6.172;2023-06-04T04:12:22;12.10;;;4.50;;
53263;SDS011;39153;52.680;6.172;2023-06-04T04:14:47;9.95;;;4.20;;
53263;SDS011;39153;52.680;6.172;2023-06-04T04:17:13;12.20;;;6.03;;
53263;SDS011;39153;52.680;6.172;2023-06-04T04:19:39;14.07;;;4.20;;
53263;SDS011;39153;52.680;6.172;2023-06-04T04:22:05;16.55;;;4.55;;
53263;SDS011;39153;52.680;6.172;2023-06-04T04:24:31;16.25;;;5.97;;
53263;SDS011;39153;52.680;6.172;2023-06-04T04:27:00;10.95;;;5.57;;
53263;SDS011;39153;52.680;6.172;2023-06-04T04:29:28;13.05;;;5.70;;
53263;SDS011;39153;52.680;6.172;2023-06-04T04:31:57;11.40;;;5.60;;
53263;SDS011;39153;52.680;6.172;2023-06-04T04:34:26;13.95;;;5.68;;
53263;SDS011;39153;52.680;6.172;2023-06-04T04:36:52;13.38;;;6.35;;
53263;SDS011;39153;52.680;6.172;2023-06-04T04:39:18;14.10;;;5.65;;
53263;SDS011;39153;52.680;6.172;2023-06-04T04:41:47;13.73;;;3.90;;
53263;SDS011;39153;52.680;6.172;2023-06-04T04:44:12;16.20;;;4.53;;
53263;SDS011;39153;52.680;6.172;2023-06-04T04:46:38;13.15;;;4.35;;
53263;SDS011;39153;52.680;6.172;2023-06-04T04:49:03;11.73;;;5.00;;
53263;SDS011;39153;52.680;6.172;2023-06-04T04:51:29;17.50;;;5.30;;
53263;SDS011;39153;52.680;6.172;2023-06-04T04:53:55;11.70;;;4.20;;
53263;SDS011;39153;52.680;6.172;2023-06-04T04:56:21;12.73;;;5.25;;
53263;SDS011;39153;52.680;6.172;2023-06-04T04:58:48;12.80;;;3.55;;
53263;SDS011;39153;52.680;6.172;2023-06-04T05:01:14;11.27;;;4.45;;
53263;SDS011;39153;52.680;6.172;2023-06-04T05:03:40;13.57;;;5.50;;
53263;SDS011;39153;52.680;6.172;2023-06-04T05:06:06;9.95;;;4.78;;
53263;SDS011;39153;52.680;6.172;2023-06-04T05:08:31;15.07;;;4.28;;
53263;SDS011;39153;52.680;6.172;2023-06-04T05:10:57;14.23;;;5.35;;
53263;SDS011;39153;52.680;6.172;2023-06-04T05:13:23;12.63;;;4.90;;
53263;SDS011;39153;52.680;6.172;2023-06-04T05:15:48;11.20;;;4.05;;
53263;SDS011;39153;52.680;6.172;2023-06-04T05:18:17;14.40;;;3.85;;
53263;SDS011;39153;52.680;6.172;2023-06-04T05:20:45;11.00;;;4.00;;
53263;SDS011;39153;52.680;6.172;2023-06-04T05:23:11;11.85;;;4.50;;
53263;SDS011;39153;52.680;6.172;2023-06-04T05:25:37;16.77;;;4.68;;
53263;SDS011;39153;52.680;6.172;2023-06-04T05:28:04;11.70;;;4.32;;
53263;SDS011;39153;52.680;6.172;2023-06-04T05:30:31;9.88;;;4.22;;
53263;SDS011;39153;52.680;6.172;2023-06-04T05:32:59;11.70;;;4.65;;
53263;SDS011;39153;52.680;6.172;2023-06-04T05:35:24;13.90;;;5.07;;
53263;SDS011;39153;52.680;6.172;2023-06-04T05:37:50;13.40;;;4.82;;
53263;SDS011;39153;52.680;6.172;2023-06-04T05:40:22;16.58;;;5.13;;
53263;SDS011;39153;52.680;6.172;2023-06-04T05:42:48;11.60;;;4.68;;
53263;SDS011;39153;52.680;6.172;2023-06-04T05:45:14;14.98;;;5.80;;
53263;SDS011;39153;52.680;6.172;2023-06-04T05:47:39;12.43;;;5.35;;
53263;SDS011;39153;52.680;6.172;2023-06-04T05:50:06;14.48;;;5.22;;
53263;SDS011;39153;52.680;6.172;2023-06-04T05:52:32;12.05;;;4.80;;
53263;SDS011;39153;52.680;6.172;2023-06-04T05:55:02;12.60;;;4.45;;
53263;SDS011;39153;52.680;6.172;2023-06-04T05:57:27;14.25;;;5.78;;
53263;SDS011;39153;52.680;6.172;2023-06-04T05:59:53;9.73;;;4.38;;
53263;SDS011;39153;52.680;6.172;2023-06-04T06:02:19;11.73;;;4.97;;
53263;SDS011;39153;52.680;6.172;2023-06-04T06:04:45;12.45;;;5.07;;
53263;SDS011;39153;52.680;6.172;2023-06-04T06:07:10;11.30;;;4.55;;
53263;SDS011;39153;52.680;6.172;2023-06-04T06:09:36;12.23;;;5.22;;
53263;SDS011;39153;52.680;6.172;2023-06-04T06:12:02;12.70;;;4.70;;
53263;SDS011;39153;52.680;6.172;2023-06-04T06:14:28;14.20;;;4.65;;
53263;SDS011;39153;52.680;6.172;2023-06-04T06:16:54;10.35;;;4.70;;
53263;SDS011;39153;52.680;6.172;2023-06-04T06:19:19;13.70;;;4.68;;
53263;SDS011;39153;52.680;6.172;2023-06-04T06:21:45;11.30;;;5.03;;
53263;SDS011;39153;52.680;6.172;2023-06-04T06:24:11;11.82;;;5.70;;
53263;SDS011;39153;52.680;6.172;2023-06-04T06:26:36;13.23;;;4.43;;
53263;SDS011;39153;52.680;6.172;2023-06-04T06:29:02;10.57;;;4.72;;
53263;SDS011;39153;52.680;6.172;2023-06-04T06:31:27;11.45;;;4.97;;
53263;SDS011;39153;52.680;6.172;2023-06-04T06:33:53;14.18;;;4.95;;
53263;SDS011;39153;52.680;6.172;2023-06-04T06:36:19;13.43;;;4.47;;
53263;SDS011;39153;52.680;6.172;2023-06-04T06:38:45;12.63;;;4.32;;
53263;SDS011;39153;52.680;6.172;2023-06-04T06:41:11;13.07;;;4.35;;
53263;SDS011;39153;52.680;6.172;2023-06-04T06:43:37;12.35;;;3.80;;
53263;SDS011;39153;52.680;6.172;2023-06-04T06:46:03;13.07;;;4.05;;
53263;SDS011;39153;52.680;6.172;2023-06-04T06:48:29;10.68;;;3.58;;
53263;SDS011;39153;52.680;6.172;2023-06-04T06:50:54;11.65;;;4.10;;
53263;SDS011;39153;52.680;6.172;2023-06-04T06:53:20;8.00;;;3.90;;
53263;SDS011;39153;52.680;6.172;2023-06-04T06:55:46;10.32;;;4.25;;
53263;SDS011;39153;52.680;6.172;2023-06-04T06:58:12;8.32;;;4.20;;
53263;SDS011;39153;52.680;6.172;2023-06-04T07:00:38;10.90;;;4.68;;
53263;SDS011;39153;52.680;6.172;2023-06-04T07:03:03;10.38;;;4.03;;
53263;SDS011;39153;52.680;6.172;2023-06-04T07:05:29;10.93;;;3.53;;
53263;SDS011;39153;52.680;6.172;2023-06-04T07:07:55;10.20;;;3.70;;
53263;SDS011;39153;52.680;6.172;2023-06-04T07:10:22;11.60;;;4.00;;
53263;SDS011;39153;52.680;6.172;2023-06-04T07:12:49;14.98;;;4.10;;
53263;SDS011;39153;52.680;6.172;2023-06-04T07:15:15;13.60;;;4.40;;
53263;SDS011;39153;52.680;6.172;2023-06-04T07:17:41;11.18;;;3.67;;
53263;SDS011;39153;52.680;6.172;2023-06-04T07:20:07;9.00;;;3.80;;
53263;SDS011;39153;52.680;6.172;2023-06-04T07:22:34;10.27;;;4.45;;
53263;SDS011;39153;52.680;6.172;2023-06-04T07:25:00;8.43;;;3.85;;
53263;SDS011;39153;52.680;6.172;2023-06-04T07:27:26;8.63;;;4.20;;
53263;SDS011;39153;52.680;6.172;2023-06-04T07:29:52;8.52;;;3.58;;
53263;SDS011;39153;52.680;6.172;2023-06-04T07:32:18;10.60;;;3.72;;
53263;SDS011;39153;52.680;6.172;2023-06-04T07:34:43;9.65;;;4.13;;
53263;SDS011;39153;52.680;6.172;2023-06-04T07:37:09;8.95;;;3.80;;
53263;SDS011;39153;52.680;6.172;2023-06-04T07:39:36;11.20;;;4.30;;
53263;SDS011;39153;52.680;6.172;2023-06-04T07:42:02;9.02;;;3.80;;
53263;SDS011;39153;52.680;6.172;2023-06-04T07:44:29;16.90;;;4.10;;
53263;SDS011;39153;52.680;6.172;2023-06-04T07:46:55;8.00;;;3.75;;
53263;SDS011;39153;52.680;6.172;2023-06-04T07:49:20;10.77;;;3.45;;
53263;SDS011;39153;52.680;6.172;2023-06-04T07:51:46;7.22;;;3.05;;
53263;SDS011;39153;52.680;6.172;2023-06-04T07:54:12;7.78;;;3.08;;
53263;SDS011;39153;52.680;6.172;2023-06-04T07:56:39;8.65;;;2.40;;
53263;SDS011;39153;52.680;6.172;2023-06-04T07:59:05;8.90;;;2.80;;
53263;SDS011;39153;52.680;6.172;2023-06-04T08:01:30;7.03;;;2.72;;
53263;SDS011;39153;52.680;6.172;2023-06-04T08:03:56;6.57;;;2.63;;
53263;SDS011;39153;52.680;6.172;2023-06-04T08:06:24;8.70;;;2.33;;
53263;SDS011;39153;52.680;6.172;2023-06-04T08:08:51;5.60;;;2.40;;
53263;SDS011;39153;52.680;6.172;2023-06-04T08:11:17;8.90;;;2.20;;
53263;SDS011;39153;52.680;6.172;2023-06-04T08:13:43;6.72;;;2.10;;
53263;SDS011;39153;52.680;6.172;2023-06-04T08:16:09;6.55;;;2.40;;
53263;SDS011;39153;52.680;6.172;2023-06-04T08:18:38;6.90;;;1.85;;
53263;SDS011;39153;52.680;6.172;2023-06-04T08:21:05;5.00;;;1.80;;
53263;SDS011;39153;52.680;6.172;2023-06-04T08:23:34;7.97;;;2.42;;
53263;SDS011;39153;52.680;6.172;2023-06-04T08:26:00;5.20;;;2.00;;
53263;SDS011;39153;52.680;6.172;2023-06-04T08:28:25;6.07;;;2.20;;
53263;SDS011;39153;52.680;6.172;2023-06-04T08:30:51;8.20;;;2.20;;
53263;SDS011;39153;52.680;6.172;2023-06-04T08:33:17;7.60;;;2.40;;
53263;SDS011;39153;52.680;6.172;2023-06-04T08:35:43;6.00;;;1.80;;
53263;SDS011;39153;52.680;6.172;2023-06-04T08:38:08;5.65;;;1.83;;
53263;SDS011;39153;52.680;6.172;2023-06-04T08:40:34;8.13;;;2.03;;
53263;SDS011;39153;52.680;6.172;2023-06-04T08:43:00;6.22;;;2.13;;
53263;SDS011;39153;52.680;6.172;2023-06-04T08:45:26;6.53;;;1.83;;
53263;SDS011;39153;52.680;6.172;2023-06-04T08:47:52;7.30;;;2.10;;
53263;SDS011;39153;52.680;6.172;2023-06-04T08:50:20;5.28;;;1.90;;
53263;SDS011;39153;52.680;6.172;2023-06-04T08:52:56;5.45;;;2.00;;
53263;SDS011;39153;52.680;6.172;2023-06-04T08:55:22;8.00;;;2.20;;
53263;SDS011;39153;52.680;6.172;2023-06-04T08:57:51;9.13;;;1.90;;
53263;SDS011;39153;52.680;6.172;2023-06-04T09:00:18;5.47;;;2.30;;
53263;SDS011;39153;52.680;6.172;2023-06-04T09:02:44;9.63;;;3.08;;
53263;SDS011;39153;52.680;6.172;2023-06-04T09:05:14;5.82;;;2.10;;
53263;SDS011;39153;52.680;6.172;2023-06-04T09:07:44;7.67;;;1.90;;
53263;SDS011;39153;52.680;6.172;2023-06-04T09:10:12;5.80;;;1.90;;
53263;SDS011;39153;52.680;6.172;2023-06-04T09:12:42;6.63;;;1.77;;
53263;SDS011;39153;52.680;6.172;2023-06-04T09:15:11;4.72;;;1.50;;
53263;SDS011;39153;52.680;6.172;2023-06-04T09:17:37;5.88;;;1.77;;
53263;SDS011;39153;52.680;6.172;2023-06-04T09:20:02;7.30;;;1.65;;
53263;SDS011;39153;52.680;6.172;2023-06-04T09:22:32;4.97;;;1.40;;
53263;SDS011;39153;52.680;6.172;2023-06-04T09:25:06;5.07;;;1.50;;
53263;SDS011;39153;52.680;6.172;2023-06-04T09:27:38;3.95;;;1.35;;
53263;SDS011;39153;52.680;6.172;2023-06-04T09:30:05;9.85;;;1.65;;
53263;SDS011;39153;52.680;6.172;2023-06-04T09:32:33;5.03;;;1.40;;
53263;SDS011;39153;52.680;6.172;2023-06-04T09:35:12;5.63;;;1.33;;
53263;SDS011;39153;52.680;6.172;2023-06-04T09:37:51;6.47;;;1.65;;
53263;SDS011;39153;52.680;6.172;2023-06-04T09:40:17;6.45;;;1.60;;
53263;SDS011;39153;52.680;6.172;2023-06-04T09:42:47;7.82;;;1.52;;
53263;SDS011;39153;52.680;6.172;2023-06-04T09:47:58;5.47;;;1.67;;
53263;SDS011;39153;52.680;6.172;2023-06-04T09:52:55;5.10;;;1.60;;
53263;SDS011;39153;52.680;6.172;2023-06-04T09:55:21;5.07;;;1.42;;
53263;SDS011;39153;52.680;6.172;2023-06-04T09:57:47;3.25;;;1.10;;
53263;SDS011;39153;52.680;6.172;2023-06-04T10:00:21;3.92;;;1.23;;
53263;SDS011;39153;52.680;6.172;2023-06-04T10:02:48;4.85;;;1.35;;
53263;SDS011;39153;52.680;6.172;2023-06-04T10:05:15;6.03;;;1.60;;
53263;SDS011;39153;52.680;6.172;2023-06-04T10:07:44;5.60;;;1.70;;
53263;SDS011;39153;52.680;6.172;2023-06-04T10:10:15;6.57;;;1.60;;
53263;SDS011;39153;52.680;6.172;2023-06-04T10:12:42;5.45;;;1.45;;
53263;SDS011;39153;52.680;6.172;2023-06-04T10:15:12;6.10;;;1.50;;
53263;SDS011;39153;52.680;6.172;2023-06-04T10:17:39;4.22;;;1.20;;
53263;SDS011;39153;52.680;6.172;2023-06-04T10:20:08;7.00;;;1.77;;
53263;SDS011;39153;52.680;6.172;2023-06-04T10:22:36;6.05;;;1.55;;
53263;SDS011;39153;52.680;6.172;2023-06-04T10:25:02;5.57;;;1.45;;
53263;SDS011;39153;52.680;6.172;2023-06-04T10:27:30;5.00;;;1.33;;
53263;SDS011;39153;52.680;6.172;2023-06-04T10:29:57;6.20;;;1.30;;
53263;SDS011;39153;52.680;6.172;2023-06-04T10:32:26;3.97;;;1.20;;
53263;SDS011;39153;52.680;6.172;2023-06-04T10:34:53;3.92;;;1.10;;
53263;SDS011;39153;52.680;6.172;2023-06-04T10:37:25;3.67;;;1.23;;
53263;SDS011;39153;52.680;6.172;2023-06-04T10:39:55;4.07;;;1.20;;
53263;SDS011;39153;52.680;6.172;2023-06-04T10:42:22;4.85;;;1.30;;
53263;SDS011;39153;52.680;6.172;2023-06-04T10:44:50;5.38;;;1.20;;
53263;SDS011;39153;52.680;6.172;2023-06-04T10:47:23;3.75;;;1.30;;
53263;SDS011;39153;52.680;6.172;2023-06-04T10:49:50;4.63;;;1.35;;
53263;SDS011;39153;52.680;6.172;2023-06-04T10:52:17;5.60;;;1.25;;
53263;SDS011;39153;52.680;6.172;2023-06-04T10:54:44;5.93;;;1.20;;
53263;SDS011;39153;52.680;6.172;2023-06-04T10:57:16;4.18;;;1.20;;
53263;SDS011;39153;52.680;6.172;2023-06-04T10:59:59;7.15;;;1.50;;
53263;SDS011;39153;52.680;6.172;2023-06-04T11:02:26;4.63;;;1.60;;
53263;SDS011;39153;52.680;6.172;2023-06-04T11:05:05;5.53;;;1.30;;
53263;SDS011;39153;52.680;6.172;2023-06-04T11:07:43;5.13;;;1.60;;
53263;SDS011;39153;52.680;6.172;2023-06-04T11:10:13;5.05;;;1.35;;
53263;SDS011;39153;52.680;6.172;2023-06-04T11:12:44;4.22;;;1.20;;
53263;SDS011;39153;52.680;6.172;2023-06-04T11:15:11;4.30;;;1.33;;
53263;SDS011;39153;52.680;6.172;2023-06-04T11:17:37;7.32;;;1.80;;
53263;SDS011;39153;52.680;6.172;2023-06-04T11:20:03;5.15;;;1.38;;
53263;SDS011;39153;52.680;6.172;2023-06-04T11:22:32;5.25;;;1.50;;
53263;SDS011;39153;52.680;6.172;2023-06-04T11:24:58;6.30;;;1.50;;
53263;SDS011;39153;52.680;6.172;2023-06-04T11:27:25;3.92;;;1.40;;
53263;SDS011;39153;52.680;6.172;2023-06-04T11:29:51;3.13;;;1.08;;
53263;SDS011;39153;52.680;6.172;2023-06-04T11:32:20;4.07;;;1.30;;
53263;SDS011;39153;52.680;6.172;2023-06-04T11:34:47;5.40;;;1.35;;
53263;SDS011;39153;52.680;6.172;2023-06-04T11:37:13;5.47;;;1.33;;
53263;SDS011;39153;52.680;6.172;2023-06-04T11:39:38;3.38;;;1.10;;
53263;SDS011;39153;52.680;6.172;2023-06-04T11:42:05;4.75;;;1.23;;
53263;SDS011;39153;52.680;6.172;2023-06-04T11:44:32;4.57;;;1.20;;
53263;SDS011;39153;52.680;6.172;2023-06-04T11:46:58;5.40;;;1.67;;
53263;SDS011;39153;52.680;6.172;2023-06-04T11:49:24;6.55;;;1.70;;
53263;SDS011;39153;52.680;6.172;2023-06-04T11:51:52;4.28;;;1.30;;
53263;SDS011;39153;52.680;6.172;2023-06-04T11:54:18;5.25;;;1.90;;
53263;SDS011;39153;52.680;6.172;2023-06-04T11:56:46;4.45;;;1.20;;
53263;SDS011;39153;52.680;6.172;2023-06-04T11:59:14;4.03;;;1.42;;
53263;SDS011;39153;52.680;6.172;2023-06-04T12:01:42;2.95;;;0.98;;
53263;SDS011;39153;52.680;6.172;2023-06-04T12:04:14;4.57;;;1.30;;
53263;SDS011;39153;52.680;6.172;2023-06-04T12:06:51;6.00;;;1.40;;
53263;SDS011;39153;52.680;6.172;2023-06-04T12:09:21;5.15;;;1.27;;
53263;SDS011;39153;52.680;6.172;2023-06-04T12:11:48;4.32;;;1.30;;
53263;SDS011;39153;52.680;6.172;2023-06-04T12:14:17;4.90;;;1.30;;
53263;SDS011;39153;52.680;6.172;2023-06-04T12:16:54;4.85;;;1.20;;
53263;SDS011;39153;52.680;6.172;2023-06-04T12:19:27;4.75;;;1.17;;
53263;SDS011;39153;52.680;6.172;2023-06-04T12:22:03;5.65;;;1.38;;
53263;SDS011;39153;52.680;6.172;2023-06-04T12:24:30;6.43;;;1.38;;
53263;SDS011;39153;52.680;6.172;2023-06-04T12:27:10;4.05;;;1.35;;
53263;SDS011;39153;52.680;6.172;2023-06-04T12:29:36;4.40;;;1.30;;
53263;SDS011;39153;52.680;6.172;2023-06-04T12:32:09;4.38;;;1.20;;
53263;SDS011;39153;52.680;6.172;2023-06-04T12:34:41;7.22;;;1.35;;
53263;SDS011;39153;52.680;6.172;2023-06-04T12:37:06;3.95;;;1.15;;
53263;SDS011;39153;52.680;6.172;2023-06-04T12:39:33;5.80;;;1.40;;
53263;SDS011;39153;52.680;6.172;2023-06-04T12:42:01;6.85;;;1.52;;
53263;SDS011;39153;52.680;6.172;2023-06-04T12:44:27;4.85;;;1.25;;
53263;SDS011;39153;52.680;6.172;2023-06-04T12:46:54;6.00;;;1.35;;
53263;SDS011;39153;52.680;6.172;2023-06-04T12:49:19;4.72;;;1.40;;
53263;SDS011;39153;52.680;6.172;2023-06-04T12:51:46;3.30;;;1.30;;
53263;SDS011;39153;52.680;6.172;2023-06-04T12:54:12;2.85;;;1.13;;
53263;SDS011;39153;52.680;6.172;2023-06-04T12:56:38;3.00;;;1.10;;
53263;SDS011;39153;52.680;6.172;2023-06-04T12:59:05;6.63;;;1.52;;
53263;SDS011;39153;52.680;6.172;2023-06-04T13:01:31;4.72;;;1.40;;
53263;SDS011;39153;52.680;6.172;2023-06-04T13:03:56;4.78;;;1.40;;
53263;SDS011;39153;52.680;6.172;2023-06-04T13:06:22;3.88;;;1.20;;
53263;SDS011;39153;52.680;6.172;2023-06-04T13:08:48;3.22;;;1.23;;
53263;SDS011;39153;52.680;6.172;2023-06-04T13:11:13;4.45;;;1.58;;
53263;SDS011;39153;52.680;6.172;2023-06-04T13:13:39;3.38;;;1.20;;
53263;SDS011;39153;52.680;6.172;2023-06-04T13:16:05;4.13;;;1.20;;
53263;SDS011;39153;52.680;6.172;2023-06-04T13:18:30;5.43;;;1.45;;
53263;SDS011;39153;52.680;6.172;2023-06-04T13:20:56;5.07;;;1.20;;
53263;SDS011;39153;52.680;6.172;2023-06-04T13:23:22;4.03;;;1.35;;
53263;SDS011;39153;52.680;6.172;2023-06-04T13:25:48;4.97;;;1.13;;
53263;SDS011;39153;52.680;6.172;2023-06-04T13:28:13;3.70;;;1.40;;
53263;SDS011;39153;52.680;6.172;2023-06-04T13:30:40;5.10;;;1.40;;
53263;SDS011;39153;52.680;6.172;2023-06-04T13:33:06;5.75;;;1.20;;
53263;SDS011;39153;52.680;6.172;2023-06-04T13:35:32;2.88;;;1.10;;
53263;SDS011;39153;52.680;6.172;2023-06-04T13:37:58;4.28;;;1.30;;
53263;SDS011;39153;52.680;6.172;2023-06-04T13:40:24;4.47;;;1.30;;
53263;SDS011;39153;52.680;6.172;2023-06-04T13:42:49;4.38;;;1.30;;
53263;SDS011;39153;52.680;6.172;2023-06-04T13:45:15;4.90;;;1.60;;
53263;SDS011;39153;52.680;6.172;2023-06-04T13:47:42;5.40;;;1.13;;
53263;SDS011;39153;52.680;6.172;2023-06-04T13:50:08;3.55;;;1.17;;
53263;SDS011;39153;52.680;6.172;2023-06-04T13:52:34;3.42;;;1.30;;
53263;SDS011;39153;52.680;6.172;2023-06-04T13:55:00;3.33;;;1.23;;
53263;SDS011;39153;52.680;6.172;2023-06-04T13:57:26;5.45;;;1.70;;
53263;SDS011;39153;52.680;6.172;2023-06-04T13:59:52;9.05;;;1.48;;
53263;SDS011;39153;52.680;6.172;2023-06-04T14:02:18;5.40;;;1.38;;
53263;SDS011;39153;52.680;6.172;2023-06-04T14:04:44;3.40;;;1.00;;
53263;SDS011;39153;52.680;6.172;2023-06-04T14:07:10;4.10;;;1.60;;
53263;SDS011;39153;52.680;6.172;2023-06-04T14:09:35;3.33;;;1.15;;
53263;SDS011;39153;52.680;6.172;2023-06-04T14:12:02;2.90;;;1.10;;
53263;SDS011;39153;52.680;6.172;2023-06-04T14:14:28;3.45;;;1.40;;
53263;SDS011;39153;52.680;6.172;2023-06-04T14:17:01;3.97;;;1.52;;
53263;SDS011;39153;52.680;6.172;2023-06-04T14:19:28;4.22;;;1.48;;
53263;SDS011;39153;52.680;6.172;2023-06-04T14:21:53;3.67;;;1.30;;
53263;SDS011;39153;52.680;6.172;2023-06-04T14:24:19;4.13;;;1.55;;
53263;SDS011;39153;52.680;6.172;2023-06-04T14:26:45;3.50;;;1.20;;
53263;SDS011;39153;52.680;6.172;2023-06-04T14:29:11;3.40;;;1.30;;
53263;SDS011;39153;52.680;6.172;2023-06-04T14:31:36;3.25;;;1.38;;
53263;SDS011;39153;52.680;6.172;2023-06-04T14:34:02;4.28;;;1.40;;
53263;SDS011;39153;52.680;6.172;2023-06-04T14:36:28;4.07;;;1.38;;
53263;SDS011;39153;52.680;6.172;2023-06-04T14:38:54;5.07;;;1.45;;
53263;SDS011;39153;52.680;6.172;2023-06-04T14:41:20;2.53;;;1.20;;
53263;SDS011;39153;52.680;6.172;2023-06-04T14:43:46;3.75;;;1.30;;
53263;SDS011;39153;52.680;6.172;2023-06-04T14:46:11;3.60;;;1.30;;
53263;SDS011;39153;52.680;6.172;2023-06-04T14:48:37;4.50;;;1.73;;
53263;SDS011;39153;52.680;6.172;2023-06-04T14:51:03;3.67;;;1.50;;
53263;SDS011;39153;52.680;6.172;2023-06-04T14:53:28;4.65;;;1.48;;
53263;SDS011;39153;52.680;6.172;2023-06-04T14:55:54;5.32;;;2.00;;
53263;SDS011;39153;52.680;6.172;2023-06-04T14:58:20;4.60;;;1.88;;
53263;SDS011;39153;52.680;6.172;2023-06-04T15:00:46;6.07;;;2.60;;